Time;durP1;ratioP1;P1;durP2;ratioP2;P2;SDS_P1;SDS_P2;PMS_P1;PMS_P2;Temp;Humidity;BMP_temperature;BMP_pressure;BME280_temperature;BME280_humidity;BME280_pressure;Samples;Min_cycle;Max_cycle;Signal;HPM_P1;HPM_P2
2023/02/09 00:01:05;;;;;;;10.75;6.38;;;;;;;-6.41;63.74;98562.88;5073731;28;20055;-62
2023/02/09 00:03:33;;;;;;;12.88;6.05;;;;;;;-6.45;63.17;98570.25;5073613;28;20486;-64
2023/02/09 00:06:00;;;;;;;9.45;5.82;;;;;;;-6.47;63.11;98575.25;5073207;28;20083;-61
2023/02/09 00:08:28;;;;;;;11.93;6.30;;;;;;;-6.57;63.40;98575.47;5072922;28;20052;-63
2023/02/09 00:10:56;;;;;;;12.05;5.50;;;;;;;-6.56;63.67;98579.78;5073256;28;20044;-63
2023/02/09 00:13:22;;;;;;;11.15;5.65;;;;;;;-6.65;63.68;98575.00;5073228;28;20087;-63
2023/02/09 00:15:51;;;;;;;11.15;5.55;;;;;;;-6.69;63.94;98581.53;5073101;28;20120;-61
2023/02/09 00:18:19;;;;;;;14.73;5.80;;;;;;;-6.84;64.02;98566.19;5073386;28;20114;-62
2023/02/09 00:20:46;;;;;;;11.90;5.88;;;;;;;-6.87;64.30;98577.06;5073115;28;20048;-61
2023/02/09 00:23:13;;;;;;;16.48;6.03;;;;;;;-7.00;64.52;98575.41;5073280;28;20087;-63
2023/02/09 00:25:41;;;;;;;10.90;6.10;;;;;;;-7.08;65.14;98566.38;5073115;28;20480;-61
2023/02/09 00:28:08;;;;;;;16.98;6.35;;;;;;;-7.11;65.45;98572.16;5073070;28;20047;-62
2023/02/09 00:30:37;;;;;;;11.30;6.70;;;;;;;-7.08;65.72;98568.06;5072987;28;20049;-62
2023/02/09 00:33:05;;;;;;;14.65;6.90;;;;;;;-7.01;65.91;98570.22;5072998;28;20127;-63
2023/02/09 00:35:32;;;;;;;10.43;6.00;;;;;;;-7.06;65.86;98566.47;5073110;28;20048;-61
2023/02/09 00:37:59;;;;;;;15.25;6.30;;;;;;;-6.96;65.54;98567.97;5072874;28;20053;-63
2023/02/09 00:40:27;;;;;;;14.10;6.90;;;;;;;-6.91;65.08;98569.13;5072979;28;20044;-61
2023/02/09 00:42:54;;;;;;;12.07;5.70;;;;;;;-6.85;65.25;98572.06;5073164;28;20076;-63
2023/02/09 00:45:21;;;;;;;30.67;9.73;;;;;;;-7.02;64.98;98565.88;5072862;28;20048;-62
2023/02/09 00:47:48;;;;;;;13.95;6.20;;;;;;;-7.08;65.31;98574.00;5072762;28;20066;-62
2023/02/09 00:50:17;;;;;;;12.32;6.55;;;;;;;-7.07;65.61;98564.72;5072783;28;20106;-62
2023/02/09 00:52:44;;;;;;;15.07;6.72;;;;;;;-7.12;66.01;98569.50;5072956;28;20048;-62
2023/02/09 00:55:11;;;;;;;14.63;7.47;;;;;;;-7.14;66.51;98565.97;5072880;28;20123;-62
2023/02/09 00:57:38;;;;;;;15.82;6.90;;;;;;;-7.15;66.71;98562.56;5072944;28;20045;-62
2023/02/09 01:00:07;;;;;;;21.33;8.35;;;;;;;-7.11;66.84;98561.09;5072823;28;20048;-62
2023/02/09 01:02:34;;;;;;;15.93;7.85;;;;;;;-7.08;66.80;98563.81;5072833;28;20044;-60
2023/02/09 01:05:02;;;;;;;13.65;6.97;;;;;;;-7.03;66.60;98557.38;5072760;28;20127;-61
2023/02/09 01:07:30;;;;;;;15.70;7.43;;;;;;;-7.03;66.37;98561.56;5072689;28;20139;-62
2023/02/09 01:09:58;;;;;;;16.75;7.65;;;;;;;-6.97;66.39;98551.78;5072894;28;20049;-61
2023/02/09 01:12:26;;;;;;;12.90;7.28;;;;;;;-6.98;66.63;98548.34;5072729;28;20052;-60
2023/02/09 01:14:53;;;;;;;13.43;7.60;;;;;;;-6.99;66.44;98538.97;5072684;28;20151;-62
2023/02/09 01:17:20;;;;;;;15.93;7.93;;;;;;;-6.94;66.40;98546.91;5072599;28;20478;-62
2023/02/09 01:19:51;;;;;;;11.88;6.93;;;;;;;-6.95;66.39;98549.34;5072698;28;20407;-60
2023/02/09 01:22:19;;;;;;;14.25;7.78;;;;;;;-6.88;66.10;98544.75;5075617;28;20044;-61
2023/02/09 01:24:47;;;;;;;13.00;6.50;;;;;;;-6.86;66.00;98540.63;5076225;28;20132;-62
2023/02/09 01:27:14;;;;;;;18.52;8.13;;;;;;;-6.79;65.73;98547.00;5076296;28;20080;-60
2023/02/09 01:29:41;;;;;;;13.88;6.95;;;;;;;-6.79;65.60;98544.44;5076143;28;20127;-60
2023/02/09 01:32:09;;;;;;;16.50;7.20;;;;;;;-6.81;65.81;98547.69;5076263;28;20091;-61
2023/02/09 01:34:35;;;;;;;14.43;6.97;;;;;;;-6.76;65.33;98542.09;5076088;28;20128;-62
2023/02/09 01:37:02;;;;;;;14.20;6.45;;;;;;;-6.76;65.21;98533.56;5076051;28;20063;-60
2023/02/09 01:39:30;;;;;;;13.27;6.90;;;;;;;-6.73;65.27;98531.22;5076127;28;20070;-62
2023/02/09 01:41:58;;;;;;;16.05;7.13;;;;;;;-6.70;64.96;98531.41;5075934;28;20044;-62
2023/02/09 01:45:02;;;;;;;14.95;6.97;;;;;;;-6.68;64.74;98536.59;5075839;28;20557;-62
2023/02/09 01:47:29;;;;;;;12.18;5.72;;;;;;;-6.69;64.55;98542.47;5076039;28;20050;-62
2023/02/09 01:49:57;;;;;;;13.13;6.47;;;;;;;-6.71;64.55;98532.19;5075725;28;20067;-61
2023/02/09 01:52:28;;;;;;;15.63;6.78;;;;;;;-6.80;64.61;98534.16;5075956;28;20079;-60
2023/02/09 01:54:58;;;;;;;14.38;6.80;;;;;;;-6.82;64.77;98525.53;5075801;28;20094;-61
2023/02/09 01:57:31;;;;;;;14.55;6.75;;;;;;;-6.93;65.01;98535.06;5075803;28;20135;-63
2023/02/09 02:00:01;;;;;;;13.43;6.95;;;;;;;-7.03;65.05;98538.66;5075846;28;20055;-63
2023/02/09 02:02:28;;;;;;;12.98;6.68;;;;;;;-7.11;65.12;98535.63;5075669;28;20542;-62
2023/02/09 02:04:56;;;;;;;18.85;7.63;;;;;;;-7.19;65.30;98536.81;5075567;28;20143;-61
2023/02/09 02:07:29;;;;;;;14.55;6.53;;;;;;;-7.18;65.49;98536.91;5075518;28;20040;-60
2023/02/09 02:09:56;;;;;;;12.73;6.18;;;;;;;-7.11;65.34;98525.44;5075411;28;20098;-61
2023/02/09 02:12:24;;;;;;;14.07;6.55;;;;;;;-7.07;65.28;98532.53;5075531;28;20482;-61
2023/02/09 02:14:53;;;;;;;14.20;6.88;;;;;;;-7.02;65.44;98527.69;5075312;28;20056;-63
2023/02/09 02:17:35;;;;;;;12.05;6.53;;;;;;;-6.95;65.03;98523.91;5075346;28;20102;-60
2023/02/09 02:20:45;;;;;;;14.25;6.22;;;;;;;-6.85;64.83;98519.47;5075335;28;20139;-62
2023/02/09 02:23:25;;;;;;;;;;;;;;;-6.87;64.76;98518.50;5076063;28;20044;-60
2023/02/09 02:26:43;;;;;;;12.77;5.90;;;;;;;-6.97;64.85;98528.88;5075214;28;19924;-60
2023/02/09 02:29:52;;;;;;;11.63;6.28;;;;;;;-7.14;65.05;98522.72;5075101;28;20153;-61
2023/02/09 02:32:39;;;;;;;15.52;6.70;;;;;;;-7.15;65.34;98523.50;5074574;28;20049;-63
2023/02/09 02:35:16;;;;;;;13.43;7.07;;;;;;;-7.29;65.67;98527.72;5075108;28;20049;-60
2023/02/09 02:37:53;;;;;;;17.70;7.55;;;;;;;-7.31;65.99;98509.81;5074951;28;20048;-62
2023/02/09 02:40:36;;;;;;;13.70;6.45;;;;;;;-7.31;66.11;98509.81;5075117;28;20047;-62
2023/02/09 02:43:12;;;;;;;16.40;7.15;;;;;;;-7.35;66.69;98510.38;5074818;28;20059;-61
2023/02/09 02:45:46;;;;;;;18.23;7.53;;;;;;;-7.31;66.59;98512.38;5074838;28;20048;-61
2023/02/09 02:48:29;;;;;;;15.13;7.07;;;;;;;-7.17;66.32;98512.38;5074591;28;20052;-63
2023/02/09 02:51:02;;;;;;;25.42;8.15;;;;;;;-7.19;66.47;98503.75;5074649;28;20067;-61
2023/02/09 02:53:32;;;;;;;18.80;8.45;;;;;;;-7.23;66.57;98515.38;5074815;28;20139;-62
2023/02/09 02:56:04;;;;;;;12.95;6.15;;;;;;;-7.14;66.11;98510.00;5074550;28;20052;-63
2023/02/09 02:58:34;;;;;;;15.15;7.57;;;;;;;-7.09;66.13;98508.63;5074457;28;20083;-62
2023/02/09 03:01:03;;;;;;;20.50;8.98;;;;;;;-7.11;66.01;98512.72;5074500;28;20075;-63
2023/02/09 03:03:34;;;;;;;14.15;6.85;;;;;;;-7.06;65.82;98510.47;5074322;28;20059;-61
2023/02/09 03:06:05;;;;;;;12.93;6.97;;;;;;;-7.08;65.51;98502.75;5074262;28;20403;-63
2023/02/09 03:08:46;;;;;;;12.25;6.80;;;;;;;-6.98;65.35;98506.78;5074161;28;20045;-63
2023/02/09 03:11:13;;;;;;;16.40;7.10;;;;;;;-6.98;65.28;98507.63;5074096;28;20044;-64
2023/02/09 03:14:00;;;;;;;17.67;7.03;;;;;;;-6.90;65.13;98503.03;5074183;28;20056;-62
2023/02/09 03:16:36;;;;;;;14.45;7.35;;;;;;;-6.93;65.05;98501.97;5071213;28;20144;-62
2023/02/09 03:19:22;;;;;;;14.50;7.38;;;;;;;-6.92;64.91;98504.63;5074118;28;20094;-62
2023/02/09 03:21:54;;;;;;;17.88;7.55;;;;;;;-6.96;65.20;98502.63;5073958;28;20055;-62
2023/02/09 03:24:33;;;;;;;15.55;7.25;;;;;;;-6.90;65.05;98497.94;5074037;28;20096;-61
2023/02/09 03:27:07;;;;;;;13.32;7.32;;;;;;;-7.12;65.33;98500.81;5073894;28;20479;-64
2023/02/09 03:29:35;;;;;;;14.65;8.35;;;;;;;-7.20;65.51;98494.34;5073867;28;20095;-64
2023/02/09 03:32:02;;;;;;;15.73;8.10;;;;;;;-7.23;65.71;98490.81;5073675;28;20518;-64
2023/02/09 03:34:32;;;;;;;16.95;7.65;;;;;;;-7.18;65.48;98495.31;5073771;28;20138;-63
2023/02/09 03:36:59;;;;;;;20.02;8.05;;;;;;;-7.19;65.59;98488.47;5073784;28;20102;-61
2023/02/09 03:39:26;;;;;;;14.57;7.55;;;;;;;-7.31;66.01;98489.47;5073868;28;20044;-61
2023/02/09 03:41:53;;;;;;;12.23;7.05;;;;;;;-7.43;66.14;98479.38;5073660;28;20478;-62
2023/02/09 03:44:26;;;;;;;14.73;6.70;;;;;;;-7.52;65.91;98473.69;5072834;28;20041;-60
2023/02/09 03:46:54;;;;;;;15.50;7.45;;;;;;;-7.63;66.31;98473.00;5073687;28;20479;-64
2023/02/09 03:49:21;;;;;;;13.93;6.32;;;;;;;-7.69;66.61;98481.13;5073823;28;20372;-62
2023/02/09 03:51:50;;;;;;;16.10;7.20;;;;;;;-7.67;66.66;98474.47;5073466;28;20052;-61
2023/02/09 03:54:17;;;;;;;11.65;5.82;;;;;;;-7.65;66.78;98475.44;5073702;28;20059;-64
2023/02/09 03:56:44;;;;;;;15.18;7.47;;;;;;;-7.86;66.81;98468.19;5073419;28;20048;-62
2023/02/09 03:59:11;;;;;;;12.10;5.93;;;;;;;-7.96;67.02;98472.53;5073333;28;20044;-64
2023/02/09 04:01:38;;;;;;;15.02;7.15;;;;;;;-7.98;67.38;98472.44;5073420;28;20084;-62
2023/02/09 04:04:05;;;;;;;13.32;6.15;;;;;;;-8.08;67.75;98465.00;5073415;28;20045;-62
2023/02/09 04:06:33;;;;;;;15.93;6.57;;;;;;;-8.20;68.02;98460.88;5073365;28;20488;-64
2023/02/09 04:09:04;;;;;;;13.18;6.72;;;;;;;-8.28;68.41;98462.88;5073466;28;20150;-63
2023/02/09 04:11:31;;;;;;;;;;;;;;;-8.20;68.68;98471.03;5073703;28;20135;-61
2023/02/09 04:13:58;;;;;;;11.98;5.00;;;;;;;-8.14;68.86;98463.81;5073133;28;20281;-61
2023/02/09 04:16:25;;;;;;;12.48;6.35;;;;;;;-8.16;68.82;98455.19;5073412;28;20441;-63
2023/02/09 04:18:53;;;;;;;12.38;6.32;;;;;;;-8.03;68.75;98456.03;5073206;28;20050;-61
2023/02/09 04:21:21;;;;;;;18.05;6.38;;;;;;;-7.97;68.95;98458.09;5073170;28;20055;-62
2023/02/09 04:23:48;;;;;;;21.35;7.68;;;;;;;-7.90;68.87;98457.69;5073094;28;20051;-61
2023/02/09 04:26:17;;;;;;;16.83;8.02;;;;;;;-7.80;68.42;98460.06;5073010;28;20048;-60
2023/02/09 04:28:45;;;;;;;14.65;6.93;;;;;;;-7.72;68.37;98459.69;5072913;28;20048;-62
2023/02/09 04:31:12;;;;;;;14.90;7.22;;;;;;;-7.63;67.97;98455.19;5072932;28;20063;-61
2023/02/09 04:33:40;;;;;;;16.35;7.55;;;;;;;-7.53;67.45;98447.38;5072999;28;20041;-64
2023/02/09 04:36:09;;;;;;;15.45;6.88;;;;;;;-7.50;67.33;98441.59;5072882;28;20041;-62
2023/02/09 04:38:36;;;;;;;16.42;7.00;;;;;;;-7.47;67.27;98440.94;5072932;28;20044;-65
2023/02/09 04:41:04;;;;;;;19.33;7.65;;;;;;;-7.46;66.91;98451.22;5072928;28;20506;-61
2023/02/09 04:43:33;;;;;;;16.58;6.80;;;;;;;-7.42;66.75;98440.44;5072902;28;20465;-63
2023/02/09 04:46:01;;;;;;;12.43;7.35;;;;;;;-7.33;66.77;98446.88;5072978;28;20045;-62
2023/02/09 04:48:29;;;;;;;20.90;8.23;;;;;;;-7.30;66.71;98447.06;5072971;28;20462;-61
2023/02/09 04:50:57;;;;;;;17.17;7.18;;;;;;;-7.26;66.40;98436.31;5072627;28;20567;-61
2023/02/09 04:53:24;;;;;;;17.42;7.00;;;;;;;-7.37;66.29;98445.81;5072722;28;20049;-61
2023/02/09 04:55:52;;;;;;;12.15;6.20;;;;;;;-7.41;66.24;98441.34;5075247;28;20082;-61
2023/02/09 05:01:07;;;;;;;14.68;7.45;;;;;;;-7.25;66.02;98443.19;5077018;28;20406;-63
2023/02/09 05:03:34;;;;;;;12.23;6.53;;;;;;;-7.32;65.96;98444.44;5076781;28;20058;-63
2023/02/09 05:06:04;;;;;;;11.40;6.57;;;;;;;-7.27;65.94;98437.09;5076766;28;20064;-63
2023/02/09 05:08:32;;;;;;;14.77;7.18;;;;;;;-7.28;65.89;98442.97;5076648;28;20491;-61
2023/02/09 05:11:00;;;;;;;14.07;6.75;;;;;;;-7.24;65.84;98433.09;5076863;28;20101;-63
2023/02/09 05:13:27;;;;;;;14.85;7.03;;;;;;;-7.24;65.67;98435.63;5076351;28;20453;-62
2023/02/09 05:15:54;;;;;;;14.20;6.72;;;;;;;-7.25;65.78;98433.00;5076435;28;20041;-61
2023/02/09 05:18:26;;;;;;;14.82;6.30;;;;;;;-7.20;65.49;98441.78;5076349;28;20048;-64
2023/02/09 05:20:54;;;;;;;10.38;6.13;;;;;;;-7.23;65.48;98445.03;5076376;28;20045;-62
2023/02/09 05:23:21;;;;;;;11.95;6.32;;;;;;;-7.20;65.68;98446.00;5076459;28;20071;-63
2023/02/09 05:25:48;;;;;;;18.77;7.10;;;;;;;-7.23;65.71;98441.59;5076394;28;20114;-62
2023/02/09 05:28:15;;;;;;;16.77;7.95;;;;;;;-7.31;65.52;98443.69;5076282;28;20090;-62
2023/02/09 05:30:43;;;;;;;15.18;6.93;;;;;;;-7.26;65.67;98443.94;5076437;28;20080;-60
2023/02/09 05:33:10;;;;;;;16.77;7.10;;;;;;;-7.20;65.45;98443.47;5076384;28;20073;-62
2023/02/09 05:35:39;;;;;;;16.02;7.30;;;;;;;-7.16;65.10;98450.50;5076266;28;20048;-63
2023/02/09 05:38:06;;;;;;;15.55;7.22;;;;;;;-7.18;65.34;98454.59;5076114;28;20041;-63
2023/02/09 05:40:33;;;;;;;14.00;6.68;;;;;;;-7.14;65.51;98457.44;5076051;28;20068;-63
2023/02/09 05:43:01;;;;;;;13.73;6.82;;;;;;;-7.11;65.38;98457.63;5076077;28;20056;-62
2023/02/09 05:45:28;;;;;;;15.05;7.65;;;;;;;-7.12;65.37;98460.97;5075875;28;20415;-63
2023/02/09 05:47:56;;;;;;;16.90;6.80;;;;;;;-7.11;65.19;98459.28;5075939;28;20051;-63
2023/02/09 05:50:23;;;;;;;13.85;6.35;;;;;;;-7.13;64.99;98450.69;5075850;28;20047;-64
2023/02/09 05:52:55;;;;;;;18.35;7.18;;;;;;;-7.08;64.95;98461.16;5075658;28;20052;-63
2023/02/09 05:55:22;;;;;;;16.25;7.03;;;;;;;-7.06;64.54;98457.94;5075782;28;20049;-61
2023/02/09 05:57:49;;;;;;;12.45;6.40;;;;;;;-6.99;64.38;98454.97;5075697;28;20123;-63
2023/02/09 06:00:18;;;;;;;13.52;6.30;;;;;;;-6.93;64.36;98459.56;5075603;28;20048;-63
2023/02/09 06:02:45;;;;;;;14.68;7.15;;;;;;;-6.76;64.13;98460.63;5075779;28;20044;-62
2023/02/09 06:05:12;;;;;;;11.35;6.05;;;;;;;-5.99;62.73;98462.53;5075527;28;20569;-63
2023/02/09 06:07:39;;;;;;;15.48;6.13;;;;;;;-5.02;59.42;98466.22;5075049;28;20135;-62
2023/02/09 06:10:09;;;;;;;13.40;5.82;;;;;;;-4.18;56.44;98454.41;5075690;28;20045;-62
2023/02/09 06:12:36;;;;;;;10.35;5.25;;;;;;;-3.45;54.33;98449.44;5075433;28;20136;-63
2023/02/09 06:15:04;;;;;;;10.75;5.70;;;;;;;-2.79;51.85;98448.22;5075322;28;20143;-62
2023/02/09 06:17:31;;;;;;;11.27;6.07;;;;;;;-2.45;50.72;98452.28;5075329;28;20049;-63
2023/02/09 06:19:58;;;;;;;11.32;5.93;;;;;;;-2.07;49.19;98451.34;5075282;28;20048;-63
2023/02/09 06:22:26;;;;;;;9.98;5.97;;;;;;;-1.57;47.23;98458.50;5075254;28;20057;-62
2023/02/09 06:24:53;;;;;;;12.82;5.90;;;;;;;-1.27;46.97;98463.16;5075248;28;20507;-62
2023/02/09 06:27:21;;;;;;;12.18;6.20;;;;;;;-0.98;nan;98460.88;5075078;28;20047;-62
2023/02/09 06:29:49;;;;;;;8.02;4.90;;;;;;;-0.19;44.10;98456.88;5075136;28;20047;-64
2023/02/09 06:32:16;;;;;;;11.82;6.32;;;;;;;0.29;42.78;98455.94;5075298;28;20079;-63
2023/02/09 06:34:44;;;;;;;9.48;5.82;;;;;;;0.95;41.73;98460.63;5075057;28;20110;-63
2023/02/09 06:37:11;;;;;;;10.60;5.68;;;;;;;1.50;39.90;98465.69;5075011;28;20044;-63
2023/02/09 06:39:38;;;;;;;10.43;5.43;;;;;;;1.71;39.12;98457.69;5074907;28;20483;-63
2023/02/09 06:42:05;;;;;;;10.50;5.15;;;;;;;1.48;38.38;98460.47;5074881;28;20045;-64
2023/02/09 06:44:34;;;;;;;13.88;5.63;;;;;;;1.76;38.30;98465.56;5074749;28;20045;-63
2023/02/09 06:47:01;;;;;;;9.68;5.22;;;;;;;1.72;38.07;98467.16;5074842;28;20041;-62
2023/02/09 06:49:28;;;;;;;13.23;5.95;;;;;;;1.63;38.24;98462.63;5074702;28;20127;-64
2023/02/09 06:51:56;;;;;;;7.90;5.07;;;;;;;1.50;39.46;98464.00;5074514;28;20118;-60
2023/02/09 06:54:23;;;;;;;8.10;5.07;;;;;;;1.55;38.63;98466.72;5074497;28;20092;-62
2023/02/09 06:56:50;;;;;;;7.72;4.57;;;;;;;1.91;37.14;98462.53;5074682;28;20568;-60
2023/02/09 06:59:17;;;;;;;7.13;4.55;;;;;;;1.93;37.26;98467.75;5074651;28;20371;-63
2023/02/09 07:01:45;;;;;;;10.30;4.90;;;;;;;1.87;37.32;98474.47;5074478;28;20132;-63
2023/02/09 07:04:13;;;;;;;12.48;5.43;;;;;;;1.92;37.24;98469.44;5074478;28;20172;-63
2023/02/09 07:06:39;;;;;;;8.70;5.30;;;;;;;2.22;37.49;98472.81;5074616;28;20053;-64
2023/02/09 07:09:06;;;;;;;8.73;5.40;;;;;;;2.82;36.46;98468.28;5074539;28;20213;-60
2023/02/09 07:11:33;;;;;;;9.93;4.88;;;;;;;3.48;34.96;98469.72;5074492;28;20044;-61
2023/02/09 07:14:01;;;;;;;9.32;4.75;;;;;;;4.26;33.50;98474.72;5074113;28;20446;-64
2023/02/09 07:16:28;;;;;;;13.30;4.95;;;;;;;4.46;32.17;98470.75;5074205;28;20414;-61
2023/02/09 07:18:59;;;;;;;8.68;4.80;;;;;;;4.62;31.28;98470.16;5074151;28;20124;-63
2023/02/09 07:21:26;;;;;;;7.65;4.85;;;;;;;4.88;30.51;98466.25;5074075;28;20522;-62
2023/02/09 07:23:53;;;;;;;7.35;4.70;;;;;;;4.48;31.38;98466.47;5073974;28;20049;-62
2023/02/09 07:26:20;;;;;;;10.07;4.93;;;;;;;4.67;31.75;98471.09;5073923;28;20525;-63
2023/02/09 07:28:47;;;;;;;7.47;5.18;;;;;;;4.83;30.67;98478.25;5074032;28;20143;-62
2023/02/09 07:31:16;;;;;;;9.30;5.32;;;;;;;4.75;31.07;98478.13;5074095;28;20103;-62
2023/02/09 07:33:43;;;;;;;9.82;4.85;;;;;;;4.97;30.96;98470.72;5073849;28;20052;-63
2023/02/09 07:36:16;;;;;;;8.02;4.78;;;;;;;4.39;30.87;98475.81;5073758;28;20044;-63
2023/02/09 07:38:44;;;;;;;8.60;5.13;;;;;;;4.13;31.71;98470.16;5073867;28;20055;-63
2023/02/09 07:41:16;;;;;;;9.13;5.07;;;;;;;4.11;32.08;98466.66;5073615;28;20049;-63
2023/02/09 07:43:43;;;;;;;8.63;4.68;;;;;;;4.83;30.92;98473.94;5073675;28;20383;-63
2023/02/09 07:46:13;;;;;;;8.80;4.35;;;;;;;5.14;30.04;98476.13;5073573;28;20051;-62
2023/02/09 07:48:41;;;;;;;8.88;5.15;;;;;;;5.87;29.53;98473.66;5073555;28;20505;-63
2023/02/09 07:51:15;;;;;;;7.28;4.72;;;;;;;6.62;29.09;98484.84;5073531;28;20102;-63
2023/02/09 07:53:42;;;;;;;8.07;4.95;;;;;;;6.82;27.81;98479.81;5073618;28;20088;-62
2023/02/09 07:56:10;;;;;;;8.45;4.55;;;;;;;7.86;26.89;98476.09;5073515;28;20102;-64
2023/02/09 07:58:38;;;;;;;7.35;4.88;;;;;;;8.13;26.36;98472.69;5073757;28;20074;-64
2023/02/09 08:01:07;;;;;;;7.78;4.80;;;;;;;8.43;26.04;98476.22;5073332;28;20513;-63
2023/02/09 08:03:36;;;;;;;7.90;5.03;;;;;;;7.83;25.59;98475.19;5073580;28;20048;-62
2023/02/09 08:06:11;;;;;;;7.75;4.63;;;;;;;7.86;25.81;98470.88;5073309;28;20414;-62
2023/02/09 08:08:39;;;;;;;6.53;4.60;;;;;;;7.91;25.36;98474.34;5073558;28;20414;-63
2023/02/09 08:11:06;;;;;;;7.10;4.47;;;;;;;7.59;25.32;98473.38;5073218;28;20537;-63
2023/02/09 08:13:39;;;;;;;7.30;4.78;;;;;;;6.73;26.70;98477.13;5073109;28;20057;-62
2023/02/09 08:16:09;;;;;;;7.72;5.07;;;;;;;5.84;27.69;98479.66;5073274;28;20132;-63
2023/02/09 08:18:40;;;;;;;6.68;4.20;;;;;;;5.31;28.33;98472.09;5073245;28;20084;-62
2023/02/09 08:21:10;;;;;;;7.68;4.70;;;;;;;4.97;29.40;98470.72;5073119;28;20536;-62
2023/02/09 08:23:41;;;;;;;11.40;4.50;;;;;;;4.53;29.38;98475.19;5073164;28;20110;-63
2023/02/09 08:26:09;;;;;;;;;;;;;;;3.97;30.46;98474.19;5073606;28;20048;-62
2023/02/09 08:28:37;;;;;;;7.97;4.60;;;;;;;3.48;31.35;98475.78;5073087;28;19925;-62
2023/02/09 08:31:05;;;;;;;10.20;5.20;;;;;;;2.45;33.70;98475.13;5072537;28;20147;-62
2023/02/09 08:33:32;;;;;;;9.02;4.45;;;;;;;1.96;34.08;98475.56;5073207;28;20504;-62
2023/02/09 08:35:59;;;;;;;4.80;3.10;;;;;;;1.45;34.09;98470.72;5072998;28;20045;-62
2023/02/09 08:38:26;;;;;;;7.13;3.65;;;;;;;0.89;35.14;98474.19;5073019;28;20048;-62
2023/02/09 08:40:55;;;;;;;8.77;3.85;;;;;;;0.55;35.86;98479.13;5073143;28;20051;-62
2023/02/09 08:43:22;;;;;;;5.72;3.92;;;;;;;0.46;36.53;98478.81;5072936;28;20139;-62
2023/02/09 08:45:51;;;;;;;7.15;3.72;;;;;;;0.16;37.25;98480.41;5072833;28;20048;-62
2023/02/09 08:48:18;;;;;;;5.80;2.90;;;;;;;-0.09;37.82;98481.25;5073196;28;20565;-62
2023/02/09 08:50:45;;;;;;;5.45;3.33;;;;;;;-0.06;37.35;98471.91;5073091;28;20045;-63
2023/02/09 08:53:12;;;;;;;7.28;4.03;;;;;;;0.14;37.60;98471.75;5072904;28;20103;-62
2023/02/09 08:55:39;;;;;;;6.00;3.13;;;;;;;0.17;37.33;98474.44;5072810;28;20052;-61
2023/02/09 08:58:11;;;;;;;7.40;3.65;;;;;;;-0.30;37.45;98459.94;5072880;28;20048;-63
2023/02/09 09:00:39;;;;;;;7.63;4.35;;;;;;;-0.30;38.05;98466.78;5072681;28;20410;-63
2023/02/09 09:03:07;;;;;;;7.10;3.85;;;;;;;-0.20;39.70;98470.56;5072741;28;20060;-62
2023/02/09 09:05:35;;;;;;;6.63;3.95;;;;;;;-0.14;37.62;98474.25;5072684;28;20388;-62
2023/02/09 09:08:03;;;;;;;10.07;4.40;;;;;;;-0.10;37.88;98469.19;5072762;28;20101;-63
2023/02/09 09:10:31;;;;;;;6.22;3.88;;;;;;;-0.24;38.05;98487.56;5072664;28;20048;-62
2023/02/09 09:12:58;;;;;;;8.00;4.07;;;;;;;-0.18;38.78;98479.22;5072375;28;20483;-62
2023/02/09 09:15:27;;;;;;;5.88;3.38;;;;;;;0.03;39.17;98483.38;5072670;28;20052;-62
2023/02/09 09:17:54;;;;;;;10.50;3.70;;;;;;;-0.04;37.83;98477.13;5072857;28;20045;-62
2023/02/09 09:20:22;;;;;;;7.10;4.13;;;;;;;0.02;38.50;98479.91;5072559;28;20098;-61
2023/02/09 09:22:49;;;;;;;6.88;3.28;;;;;;;0.22;37.50;98475.47;5072553;28;20055;-62
2023/02/09 09:25:16;;;;;;;5.07;3.03;;;;;;;0.09;37.06;98475.88;5072722;28;20048;-61
2023/02/09 09:27:43;;;;;;;5.57;3.72;;;;;;;0.02;36.89;98481.59;5072485;28;20041;-61
2023/02/09 09:30:12;;;;;;;7.05;3.85;;;;;;;0.05;38.31;98468.84;5072472;28;20079;-62
2023/02/09 09:32:40;;;;;;;5.93;3.10;;;;;;;0.08;36.21;98477.56;5072401;28;20052;-62
2023/02/09 09:35:08;;;;;;;3.97;2.67;;;;;;;0.01;35.83;98480.75;5072377;28;20070;-63
2023/02/09 09:37:35;;;;;;;3.47;2.28;;;;;;;0.03;35.53;98478.22;5072717;28;20556;-62
2023/02/09 09:40:02;;;;;;;4.78;2.97;;;;;;;0.08;36.41;98464.69;5072505;28;20049;-63
2023/02/09 09:42:34;;;;;;;8.93;3.70;;;;;;;0.15;36.22;98458.03;5074270;28;20045;-62
2023/02/09 09:45:03;;;;;;;5.95;3.42;;;;;;;0.05;36.61;98471.41;5076080;28;20045;-62
2023/02/09 09:47:37;;;;;;;5.93;3.63;;;;;;;0.02;36.70;98464.47;5076166;28;20052;-64
2023/02/09 09:50:13;;;;;;;4.90;3.00;;;;;;;0.18;36.94;98449.56;5076181;28;20128;-63
2023/02/09 09:52:46;;;;;;;7.00;3.10;;;;;;;0.37;35.89;98459.66;5075705;28;20044;-62
2023/02/09 09:55:22;;;;;;;4.82;3.17;;;;;;;0.34;36.13;98457.00;5075858;28;20508;-61
2023/02/09 09:57:51;;;;;;;4.05;2.60;;;;;;;0.40;35.37;98452.84;5075811;28;20049;-63
2023/02/09 10:00:22;;;;;;;5.75;3.13;;;;;;;0.37;36.06;98449.34;5075638;28;20140;-63
2023/02/09 10:02:49;;;;;;;5.63;2.92;;;;;;;0.37;36.56;98439.03;5075566;28;20055;-61
2023/02/09 10:05:20;;;;;;;5.22;2.75;;;;;;;0.43;35.86;98432.34;5075579;28;20403;-63
2023/02/09 10:07:54;;;;;;;4.43;2.55;;;;;;;0.30;35.53;98431.94;5075533;28;20417;-64
2023/02/09 10:10:32;;;;;;;4.47;2.90;;;;;;;0.31;36.24;98432.81;5075490;28;20045;-65
2023/02/09 10:13:03;;;;;;;5.68;3.20;;;;;;;0.28;36.15;98420.75;5075148;28;20048;-63
2023/02/09 10:15:33;;;;;;;5.28;3.30;;;;;;;0.24;35.89;98426.63;5075435;28;20045;-62
2023/02/09 10:18:00;;;;;;;7.68;2.75;;;;;;;0.17;35.36;98415.22;5075447;28;20123;-63
2023/02/09 10:20:46;;;;;;;4.40;2.45;;;;;;;0.32;36.46;98419.13;5075383;28;20109;-62
2023/02/09 10:23:23;;;;;;;5.22;3.20;;;;;;;0.33;35.51;98415.75;5075229;28;20131;-62
2023/02/09 10:26:00;;;;;;;4.47;2.40;;;;;;;0.34;35.63;98410.63;5075229;28;20090;-63
2023/02/09 10:28:29;;;;;;;4.35;2.88;;;;;;;0.34;35.27;98407.19;5075161;28;20383;-62
2023/02/09 10:31:00;;;;;;;5.77;2.67;;;;;;;0.27;35.34;98407.81;5075079;28;20460;-62
2023/02/09 10:33:28;;;;;;;;;;;;;;;0.25;36.02;98395.75;5075453;28;20783;-62
2023/02/09 10:36:04;;;;;;;5.57;3.47;;;;;;;0.24;36.08;98398.28;5074983;28;20358;-62
2023/02/09 10:38:33;;;;;;;5.45;2.85;;;;;;;0.33;35.69;98402.88;5075338;28;20051;-63
2023/02/09 10:41:01;;;;;;;4.63;2.80;;;;;;;0.43;36.79;98402.34;5074831;28;20098;-62
2023/02/09 10:43:31;;;;;;;6.15;3.20;;;;;;;0.57;36.19;98395.03;5074871;28;20049;-62
2023/02/09 10:46:01;;;;;;;4.35;3.00;;;;;;;0.62;35.58;98413.22;5074862;28;20135;-62
2023/02/09 10:48:29;;;;;;;6.53;3.20;;;;;;;0.50;35.34;98401.72;5074826;28;20048;-63
2023/02/09 10:50:59;;;;;;;4.90;2.53;;;;;;;0.37;34.75;98403.00;5074808;28;20045;-62
2023/02/09 10:53:30;;;;;;;3.60;2.60;;;;;;;0.17;35.75;98401.47;5074392;28;20048;-62
2023/02/09 10:56:04;;;;;;;4.05;2.53;;;;;;;0.30;37.36;98397.63;5074644;28;20060;-62
2023/02/09 10:58:32;;;;;;;4.28;2.80;;;;;;;0.54;35.54;98394.09;5074594;28;20044;-62
2023/02/09 11:01:16;;;;;;;4.57;2.65;;;;;;;0.53;35.54;98392.31;5074546;28;20479;-62
2023/02/09 11:03:59;;;;;;;4.60;2.72;;;;;;;0.50;35.26;98396.56;5074392;28;20088;-62
2023/02/09 11:06:28;;;;;;;4.25;3.05;;;;;;;0.37;35.75;98391.84;5074676;28;20057;-63
2023/02/09 11:09:02;;;;;;;4.55;2.70;;;;;;;0.49;36.49;98394.78;5074359;28;20056;-62
2023/02/09 11:11:31;;;;;;;6.43;3.50;;;;;;;0.60;36.75;98396.84;5074313;28;20051;-62
2023/02/09 11:13:59;;;;;;;5.57;3.23;;;;;;;0.80;36.53;98387.16;5074175;28;20052;-63
2023/02/09 11:16:55;;;;;;;4.22;2.65;;;;;;;0.65;36.48;98392.72;5074408;28;20360;-62
2023/02/09 11:19:58;;;;;;;4.07;2.95;;;;;;;0.57;35.77;98382.16;5074203;28;20052;-63
2023/02/09 11:22:44;;;;;;;6.88;3.28;;;;;;;0.56;36.16;98388.13;5074137;28;20044;-63
2023/02/09 11:25:19;;;;;;;5.88;3.25;;;;;;;0.40;36.54;98380.75;5074086;28;20048;-63
2023/02/09 11:28:03;;;;;;;4.25;3.13;;;;;;;0.51;36.55;98379.38;5074081;28;20098;-62
2023/02/09 11:30:54;;;;;;;6.47;3.50;;;;;;;0.58;36.05;98380.47;5073964;28;20052;-63
2023/02/09 11:33:31;;;;;;;5.68;2.75;;;;;;;0.42;36.47;98381.69;5073795;28;20053;-63
2023/02/09 11:36:13;;;;;;;4.07;2.85;;;;;;;0.50;37.40;98381.09;5074023;28;20067;-63
2023/02/09 11:38:47;;;;;;;4.43;2.80;;;;;;;0.45;35.92;98376.63;5073821;28;20044;-62
2023/02/09 11:44:07;;;;;;;3.65;2.60;;;;;;;0.65;34.59;98371.22;5052612;28;20127;-62
2023/02/09 11:46:35;;;;;;;4.30;2.65;;;;;;;0.62;35.84;98377.16;5073727;28;20119;-63
2023/02/09 11:49:07;;;;;;;5.55;2.78;;;;;;;0.36;36.48;98379.78;5073567;28;20049;-63
2023/02/09 11:51:37;;;;;;;6.25;3.38;;;;;;;0.31;36.77;98366.75;5073624;28;20048;-63
2023/02/09 11:54:12;;;;;;;2.53;2.05;;;;;;;0.16;35.61;98366.25;5073471;28;20091;-63